Humidity-temperature Sensor

Selected Measurement Type: Relative Humidity

 
Relative Humidity [%]     6 entries per hour
Showing data from 3/8/2016 (00:00:00 Z) to 3/1/2016 (00:01:00 Z)
Previous Next [ Day | 3-Days | 7-Days ]
First Last
Prev [ Day | 3-Days | 7-Days ] Next
First Last

Start Time:     :
End Time:     :     
Time (in GMT) :00 :50 :40 :30 :20 :10
Previous Next [ Day | 3-Days | 7-Days ]
First Last
Prev [ Day | 3-Days | 7-Days ] Next
First Last


123 => good data
MM => data is determined as missing
-- => data not received/configured
Back to Top Back to Top
3/8/2016 00:00 to 23:10 88.48 88.26 87.90 87.65 88.07 87.71
3/7/2016 23:00 to 22:10 86.87 86.02 85.95 86.04 86.21 85.23
3/7/2016 22:00 to 21:10 84.49 83.67 84.98 85.00 84.54 85.15
3/7/2016 21:00 to 20:10 85.38 85.49 87.01 88.84 88.03 88.62
3/7/2016 20:00 to 19:10 87.86 88.45 88.39 88.50 88.94 89.41
3/7/2016 19:00 to 18:10 89.20 88.69 89.66 89.70 89.30 88.92
3/7/2016 18:00 to 17:10 88.54 89.30 90.11 90.47 91.52 93.50
3/7/2016 17:00 to 16:10 95.40 95.40 92.54 91.63 89.98 90.06
3/7/2016 16:00 to 15:10 89.34 89.70 90.38 91.12 90.11 89.53
3/7/2016 15:00 to 14:10 89.68 91.12 90.19 89.85 90.00 90.13
3/7/2016 14:00 to 13:10 90.66 89.98 89.98 90.06 90.11 89.11
3/7/2016 13:00 to 12:10 89.00 88.75 88.56 88.54 89.39 89.91
3/7/2016 12:00 to 11:10 90.06 89.91 90.68 91.69 92.18 91.55
3/7/2016 11:00 to 10:10 91.86 91.31 91.52 92.42 92.75 91.50
3/7/2016 10:00 to 9:10 91.02 90.51 90.66 90.66 90.80 90.00
3/7/2016 09:00 to 8:10 90.97 91.21 91.59 91.10 90.59 90.97
3/7/2016 08:00 to 7:10 90.38 90.42 89.77 89.43 89.83 90.44
3/7/2016 07:00 to 6:10 90.66 90.19 89.87 89.98 90.17 90.08
3/7/2016 06:00 to 5:10 90.32 90.42 90.06 90.13 89.83 89.36
3/7/2016 05:00 to 4:10 88.69 90.00 89.41 89.58 90.04 88.71
3/7/2016 04:00 to 3:10 88.58 87.78 87.95 88.56 87.48 87.16
3/7/2016 03:00 to 2:10 86.78 86.78 87.63 87.33 88.01 87.73
3/7/2016 02:00 to 1:10 87.48 87.48 87.63 87.20 87.18 86.27
3/7/2016 01:00 to 0:10 86.61 85.55 85.55 86.06 86.40 86.21
3/7/2016 00:00 to 23:10 87.44 86.61 87.06 87.80 87.95 87.84
3/6/2016 23:00 to 22:10 87.82 89.45 88.98 88.09 88.31 88.60
3/6/2016 22:00 to 21:10 88.12 88.66 88.96 89.00 89.47 89.94
3/6/2016 21:00 to 20:10 90.21 89.66 88.77 88.45 88.77 88.37
3/6/2016 20:00 to 19:10 88.54 89.75 90.15 89.66 88.98 88.47
3/6/2016 19:00 to 18:10 88.39 88.05 89.07 89.17 88.66 87.95
3/6/2016 18:00 to 17:10 87.54 88.12 88.03 88.67 88.09 88.35
3/6/2016 17:00 to 16:10 87.99 88.62 88.73 90.15 90.80 90.95
3/6/2016 16:00 to 15:10 89.98 90.44 90.66 90.32 92.01 92.24
3/6/2016 15:00 to 14:10 91.44 91.27 91.10 90.99 90.91 91.69
3/6/2016 14:00 to 13:10 91.69 91.93 90.61 92.48 91.63 91.80
3/6/2016 13:00 to 12:10 92.25 92.58 92.82 93.13 92.99 92.52
3/6/2016 12:00 to 11:10 93.20 93.11 93.83 94.45 94.43 94.91
3/6/2016 11:00 to 10:10 94.21 94.39 93.79 93.41 93.24 92.92
3/6/2016 10:00 to 9:10 93.09 93.31 93.41 93.30 94.03 94.15
3/6/2016 09:00 to 8:10 93.41 93.22 93.33 92.94 92.54 92.33
3/6/2016 08:00 to 7:10 92.82 92.22 91.72 91.31 91.99 92.56
3/6/2016 07:00 to 6:10 91.99 92.08 92.92 92.58 92.39 92.06
3/6/2016 06:00 to 5:10 91.33 90.95 90.87 90.36 90.57 91.17
3/6/2016 05:00 to 4:10 90.51 90.06 89.66 88.92 88.16 88.03
3/6/2016 04:00 to 3:10 88.56 90.08 89.30 87.18 89.03 88.66
3/6/2016 03:00 to 2:10 87.75 87.63 86.69 85.91 85.51 86.67
3/6/2016 02:00 to 1:10 87.39 87.37 86.70 86.78 86.51 86.36
3/6/2016 01:00 to 0:10 84.96 85.74 85.93 85.62 86.48 86.34
3/6/2016 00:00 to 23:10 86.25 88.54 88.03 87.25 86.04 86.31
3/5/2016 23:00 to 22:10 86.61 87.31 86.33 85.76 85.76 84.17
3/5/2016 22:00 to 21:10 84.41 86.38 88.94 88.75 89.15 88.73
3/5/2016 21:00 to 20:10 88.73 88.56 88.45 88.73 87.94 87.69
3/5/2016 20:00 to 19:10 88.12 87.67 87.10 86.53 87.61 86.82
3/5/2016 19:00 to 18:10 86.44 88.98 87.31 86.89 87.01 85.76
3/5/2016 18:00 to 17:10 88.07 89.11 89.30 89.81 89.96 91.34
3/5/2016 17:00 to 16:10 90.11 87.01 86.12 85.85 86.70 86.48
3/5/2016 16:00 to 15:10 87.54 87.75 87.35 86.53 86.00 87.25
3/5/2016 15:00 to 14:10 86.25 87.03 89.47 89.11 88.01 87.50
3/5/2016 14:00 to 13:10 87.33 86.44 85.80 87.33 88.69 89.49
3/5/2016 13:00 to 12:10 90.21 90.38 91.08 91.57 91.52 91.84
3/5/2016 12:00 to 11:10 91.67 91.14 90.95 90.80 89.68 90.81
3/5/2016 11:00 to 10:10 91.76 91.80 91.42 86.74 86.99 87.31
3/5/2016 10:00 to 9:10 86.38 85.89 85.47 85.66 85.26 85.25
3/5/2016 09:00 to 8:10 84.87 85.36 85.08 86.63 87.59 87.80
3/5/2016 08:00 to 7:10 87.29 87.94 87.29 87.37 88.54 88.69
3/5/2016 07:00 to 6:10 88.24 87.58 87.78 88.05 88.07 88.24
3/5/2016 06:00 to 5:10 86.82 86.48 86.19 85.57 85.21 86.63
3/5/2016 05:00 to 4:10 86.55 86.84 87.10 86.69 87.27 86.78
3/5/2016 04:00 to 3:10 85.23 85.34 85.04 85.11 85.83 85.74
3/5/2016 03:00 to 2:10 87.84 87.42 87.06 87.33 87.14 86.84
3/5/2016 02:00 to 1:10 86.31 85.28 84.72 85.38 84.39 85.83
3/5/2016 01:00 to 0:10 85.28 84.73 84.77 85.85 86.04 86.34
3/5/2016 00:00 to 23:10 85.76 84.98 84.73 84.36 85.66 85.09
3/4/2016 23:00 to 22:10 84.22 83.81 83.22 84.24 83.84 84.56
3/4/2016 22:00 to 21:10 83.90 84.43 83.75 83.43 83.79 85.44
3/4/2016 21:00 to 20:10 85.25 86.12 87.58 86.38 86.95 86.19
3/4/2016 20:00 to 19:10 87.06 86.61 86.34 86.00 84.94 85.17
3/4/2016 19:00 to 18:10 85.30 85.40 85.15 83.47 85.59 87.06
3/4/2016 18:00 to 17:10 87.52 87.29 88.12 89.00 88.37 87.97
3/4/2016 17:00 to 16:10 88.75 88.71 88.09 88.05 87.82 88.71
3/4/2016 16:00 to 15:10 88.96 89.03 89.96 89.91 89.85 89.73
3/4/2016 15:00 to 14:10 90.42 90.80 89.73 89.38 89.62 90.15
3/4/2016 14:00 to 13:10 89.24 90.32 89.83 89.66 90.00 89.79
3/4/2016 13:00 to 12:10 89.83 89.89 89.47 89.11 89.26 88.98
3/4/2016 12:00 to 11:10 89.02 88.77 88.86 88.52 88.86 88.31
3/4/2016 11:00 to 10:10 88.67 87.65 87.27 88.20 88.16 88.05
3/4/2016 10:00 to 9:10 88.28 87.42 87.18 87.08 86.84 86.84
3/4/2016 09:00 to 8:10 88.24 88.62 88.54 88.48 89.03 89.45
3/4/2016 08:00 to 7:10 89.68 90.06 89.98 88.86 88.54 88.58
3/4/2016 07:00 to 6:10 88.45 88.33 88.64 88.03 88.22 87.78
3/4/2016 06:00 to 5:10 87.63 86.42 85.66 85.23 86.17 86.23
3/4/2016 05:00 to 4:10 86.93 87.52 88.31 87.90 87.65 86.97
3/4/2016 04:00 to 3:10 86.57 85.85 85.78 86.59 85.95 87.48
3/4/2016 03:00 to 2:10 87.35 88.11 88.43 88.67 88.62 89.09
3/4/2016 02:00 to 1:10 88.75 89.32 88.41 88.56 89.49 90.13
3/4/2016 01:00 to 0:10 89.41 88.67 88.52 88.47 87.67 87.27
3/4/2016 00:00 to 23:10 87.23 87.65 87.29 87.82 87.95 88.18
3/3/2016 23:00 to 22:10 87.18 87.16 87.44 86.82 88.11 88.41
3/3/2016 22:00 to 21:10 89.81 89.85 89.53 88.62 87.99 85.78
3/3/2016 21:00 to 20:10 85.02 85.47 85.68 85.40 84.20 83.67
3/3/2016 20:00 to 19:10 83.60 83.26 83.64 84.49 84.73 84.56
3/3/2016 19:00 to 18:10 86.02 85.00 87.25 87.97 87.44 86.97
3/3/2016 18:00 to 17:10 87.90 89.32 89.62 89.81 90.83 91.31
3/3/2016 17:00 to 16:10 91.21 89.53 90.40 90.91 91.00 92.71
3/3/2016 16:00 to 15:10 93.11 93.49 92.80 92.73 93.92 94.00
3/3/2016 15:00 to 14:10 94.62 95.72 94.53 93.52 93.45 93.26
3/3/2016 14:00 to 13:10 93.26 93.20 93.07 92.69 92.27 92.27
3/3/2016 13:00 to 12:10 93.33 93.13 93.88 93.69 96.14 97.39
3/3/2016 12:00 to 11:10 98.90 98.58 99.04 98.66 98.09 96.27
3/3/2016 11:00 to 10:10 96.93 97.52 96.78 96.63 97.63 97.24
3/3/2016 10:00 to 9:10 94.60 94.55 95.11 93.79 93.81 95.40
3/3/2016 09:00 to 8:10 94.17 92.48 91.76 91.72 91.99 92.03
3/3/2016 08:00 to 7:10 90.99 90.61 90.80 90.23 88.64 88.71
3/3/2016 07:00 to 6:10 89.47 88.88 88.71 88.50 88.43 89.07
3/3/2016 06:00 to 5:10 89.41 89.26 89.30 89.09 88.33 87.84
3/3/2016 05:00 to 4:10 87.97 88.90 88.28 88.28 87.99 88.05
3/3/2016 04:00 to 3:10 88.09 88.07 87.84 88.62 89.09 93.56
3/3/2016 03:00 to 2:10 93.47 93.98 93.45 94.11 95.46 94.21
3/3/2016 02:00 to 1:10 90.44 81.74 81.02 81.29 81.38 82.35
3/3/2016 01:00 to 0:10 82.35 82.75 82.86 83.62 83.88 84.60
3/3/2016 00:00 to 23:10 84.58 84.47 85.15 85.47 85.36 84.32
3/2/2016 23:00 to 22:10 84.77 84.37 84.28 84.51 84.62 84.43
3/2/2016 22:00 to 21:10 84.87 85.32 85.17 85.42 85.91 86.40
3/2/2016 21:00 to 20:10 85.62 85.45 85.32 85.19 85.98 86.91
3/2/2016 20:00 to 19:10 87.39 87.03 87.29 86.57 85.80 85.80
3/2/2016 19:00 to 18:10 84.72 85.68 86.53 87.03 86.50 86.10
3/2/2016 18:00 to 17:10 86.80 87.16 88.41 89.72 89.60 89.34
3/2/2016 17:00 to 16:10 88.31 88.58 87.52 86.65 87.31 88.90
3/2/2016 16:00 to 15:10 89.36 90.61 90.49 90.38 90.28 90.19
3/2/2016 15:00 to 14:10 90.08 90.21 90.17 90.08 90.06 89.87
3/2/2016 14:00 to 13:10 89.70 90.02 89.68 90.02 90.04 89.79
3/2/2016 13:00 to 12:10 89.56 89.39 89.98 89.89 89.81 89.96
3/2/2016 12:00 to 11:10 90.17 89.87 89.83 89.89 89.32 89.41
3/2/2016 11:00 to 10:10 89.32 89.79 88.98 89.64 89.66 89.32
3/2/2016 10:00 to 9:10 89.39 89.68 89.36 89.24 89.34 88.79
3/2/2016 09:00 to 8:10 88.58 88.11 87.77 88.18 87.71 87.46
3/2/2016 08:00 to 7:10 87.54 87.18 87.12 86.84 86.42 86.97
3/2/2016 07:00 to 6:10 86.04 85.93 84.62 84.64 84.13 84.09
3/2/2016 06:00 to 5:10 83.92 83.41 84.30 84.15 84.37 84.70
3/2/2016 05:00 to 4:10 84.73 85.04 85.21 85.15 85.06 84.17
3/2/2016 04:00 to 3:10 84.34 84.36 83.92 84.01 83.83 83.65
3/2/2016 03:00 to 2:10 -- -- -- -- -- --
3/2/2016 02:00 to 1:10 82.97 83.16 83.07 83.64 84.07 84.51
3/2/2016 01:00 to 0:10 84.51 84.15 84.56 84.51 84.49 84.09
3/2/2016 00:00 to 23:10 83.62 83.84 84.15 84.79 84.64 84.53
3/1/2016 23:00 to 22:10 84.56 85.68 85.34 85.68 85.59 86.19
3/1/2016 22:00 to 21:10 87.22 86.82 87.59 86.42 86.82 86.78
3/1/2016 21:00 to 20:10 87.29 86.59 87.52 87.61 87.88 87.67
3/1/2016 20:00 to 19:10 87.52 87.05 87.67 87.86 87.54 87.39
3/1/2016 19:00 to 18:10 87.37 87.06 87.42 87.10 86.74 86.74
3/1/2016 18:00 to 17:10 86.87 86.87 86.46 86.46 85.93 86.69
3/1/2016 17:00 to 16:10 86.12 86.23 86.08 86.44 86.50 87.56
3/1/2016 16:00 to 15:10 88.64 89.83 89.91 89.85 89.62 89.94
3/1/2016 15:00 to 14:10 90.02 89.62 89.13 88.39 88.31 89.02
3/1/2016 14:00 to 13:10 88.84 89.07 88.45 88.48 88.05 87.99
3/1/2016 13:00 to 12:10 88.73 88.79 87.50 87.97 88.45 89.55
3/1/2016 12:00 to 11:10 90.04 90.30 90.15 89.32 90.28 89.34
3/1/2016 11:00 to 10:10 90.64 90.81 90.47 90.28 90.68 90.30
3/1/2016 10:00 to 9:10 90.08 90.00 90.09 89.41 89.47 89.79
3/1/2016 09:00 to 8:10 89.41 88.48 87.97 88.67 88.24 88.48
3/1/2016 08:00 to 7:10 88.50 88.56 88.56 88.58 88.66 88.56
3/1/2016 07:00 to 6:10 88.03 88.01 87.77 88.01 86.91 87.03
3/1/2016 06:00 to 5:10 87.61 87.69 88.26 87.94 87.95 88.41
3/1/2016 05:00 to 4:10 87.99 88.12 89.07 88.45 88.60 88.54
3/1/2016 04:00 to 3:10 87.94 87.56 88.48 88.52 87.48 86.84
3/1/2016 03:00 to 2:10 85.83 88.16 88.22 88.01 87.69 87.35
3/1/2016 02:00 to 1:10 87.06 87.48 86.69 85.76 87.06 86.95
3/1/2016 01:00 to 0:10 86.48 87.44 87.16 87.39 87.39 88.28